<?xml version="1.0" encoding="UTF-8" standalone="no" ?>
<gpx xmlns="http://www.topografix.com/GPX/1/1" xmlns:xsi="http://www.w3.org/2001/XMLSchema-instance" xsi:schemaLocation="http://www.topografix.com/GPX/1/1 http://www.topografix.com/GPX/1/1/gpx.xsd" version="1.1" creator="VisuGPX - https://www.visugpx.com">
  <metadata>
    <name>Etape 4/ Les Sables d\'olonne - St Gilles Croix de Vie</name>
    <desc><![CDATA[Etape 4/ Les Sables d\'olonne - St Gilles Croix de Vie]]></desc>
  </metadata>
  <trk>
    <name><![CDATA[Etape 4: Les Sables d'olonne - St Gilles Croix de Vie]]></name>
    <trkseg>
      <trkpt lat="46.49349" lon="-1.77877">
        <ele>13.95</ele>
        <time>2008-01-20T00:15:39Z</time>
      </trkpt>
      <trkpt lat="46.49389" lon="-1.77994">
        <ele>15.59</ele>
        <time>2008-01-20T00:12:20Z</time>
      </trkpt>
      <trkpt lat="46.49429" lon="-1.78125">
        <ele>16.7</ele>
        <time>2008-01-20T00:11:45Z</time>
      </trkpt>
      <trkpt lat="46.49453" lon="-1.78266">
        <ele>16.7</ele>
        <time>2008-01-20T00:08:58Z</time>
      </trkpt>
      <trkpt lat="46.49475" lon="-1.78413">
        <ele>18.08</ele>
        <time>2008-01-20T00:08:28Z</time>
      </trkpt>
      <trkpt lat="46.49473" lon="-1.78547">
        <ele>16.8</ele>
        <time>2008-01-20T00:07:50Z</time>
      </trkpt>
      <trkpt lat="46.4947" lon="-1.78686">
        <ele>16.1</ele>
        <time>2008-01-20T00:07:29Z</time>
      </trkpt>
      <trkpt lat="46.49468" lon="-1.78824">
        <ele>16.65</ele>
        <time>2008-01-20T00:07:05Z</time>
      </trkpt>
      <trkpt lat="46.49465" lon="-1.78958">
        <ele>18.1</ele>
        <time>2008-01-20T00:06:18Z</time>
      </trkpt>
      <trkpt lat="46.49461" lon="-1.7909">
        <ele>19.3</ele>
        <time>2008-01-20T00:05:11Z</time>
      </trkpt>
      <trkpt lat="46.49417" lon="-1.79189">
        <ele>5.3</ele>
        <time>2008-01-20T06:00:44Z</time>
      </trkpt>
      <trkpt lat="46.49343" lon="-1.79275">
        <ele>6.3</ele>
        <time>2008-01-20T06:00:22Z</time>
      </trkpt>
      <trkpt lat="46.49401" lon="-1.79374">
        <ele>4.3</ele>
        <time>2008-01-20T06:00:04Z</time>
      </trkpt>
      <trkpt lat="46.49476" lon="-1.79448">
        <ele>4.1</ele>
        <time>2008-01-20T05:59:47Z</time>
      </trkpt>
      <trkpt lat="46.49565" lon="-1.79486">
        <ele>2.1</ele>
        <time>2008-01-20T05:59:32Z</time>
      </trkpt>
      <trkpt lat="46.49628" lon="-1.79419">
        <ele>2.7</ele>
        <time>2008-01-20T05:59:15Z</time>
      </trkpt>
      <trkpt lat="46.49631" lon="-1.79286">
        <ele>1.1</ele>
        <time>2008-01-20T05:58:59Z</time>
      </trkpt>
      <trkpt lat="46.49619" lon="-1.79152">
        <ele>0.6</ele>
        <time>2008-01-20T05:58:45Z</time>
      </trkpt>
      <trkpt lat="46.49616" lon="-1.79021">
        <ele>-2.5</ele>
        <time>2008-01-20T05:58:31Z</time>
      </trkpt>
      <trkpt lat="46.4965" lon="-1.78895">
        <ele>-1.3</ele>
        <time>2008-01-20T05:58:17Z</time>
      </trkpt>
      <trkpt lat="46.49697" lon="-1.78779">
        <ele>4</ele>
        <time>2008-01-20T05:58:02Z</time>
      </trkpt>
      <trkpt lat="46.49743" lon="-1.78661">
        <ele>2.5</ele>
        <time>2008-01-20T05:57:44Z</time>
      </trkpt>
      <trkpt lat="46.49795" lon="-1.78553">
        <ele>2.8</ele>
        <time>2008-01-20T05:57:27Z</time>
      </trkpt>
      <trkpt lat="46.49873" lon="-1.78508">
        <ele>2.4</ele>
        <time>2008-01-20T05:57:08Z</time>
      </trkpt>
      <trkpt lat="46.49959" lon="-1.78514">
        <ele>2.9</ele>
        <time>2008-01-20T05:56:51Z</time>
      </trkpt>
      <trkpt lat="46.50025" lon="-1.78609">
        <ele>3.2</ele>
        <time>2008-01-20T05:47:16Z</time>
      </trkpt>
      <trkpt lat="46.50102" lon="-1.78592">
        <ele>3.2</ele>
        <time>2008-01-20T05:46:57Z</time>
      </trkpt>
      <trkpt lat="46.5019" lon="-1.78627">
        <ele>3.7</ele>
        <time>2008-01-20T05:46:40Z</time>
      </trkpt>
      <trkpt lat="46.50266" lon="-1.787">
        <ele>1.1</ele>
        <time>2008-01-20T05:46:23Z</time>
      </trkpt>
      <trkpt lat="46.50342" lon="-1.7878">
        <ele>1.6</ele>
        <time>2008-01-20T05:46:09Z</time>
      </trkpt>
      <trkpt lat="46.50417" lon="-1.7886">
        <ele>2</ele>
        <time>2008-01-20T05:45:52Z</time>
      </trkpt>
      <trkpt lat="46.50492" lon="-1.7894">
        <ele>2.9</ele>
        <time>2008-01-20T05:45:37Z</time>
      </trkpt>
      <trkpt lat="46.50506" lon="-1.79063">
        <ele>2.6</ele>
        <time>2008-01-20T05:45:19Z</time>
      </trkpt>
      <trkpt lat="46.50478" lon="-1.7919">
        <ele>3.6</ele>
        <time>2008-01-20T05:45:01Z</time>
      </trkpt>
      <trkpt lat="46.50445" lon="-1.79313">
        <ele>4.4</ele>
        <time>2008-01-20T05:44:44Z</time>
      </trkpt>
      <trkpt lat="46.50407" lon="-1.79435">
        <ele>5.4</ele>
        <time>2008-01-20T05:44:26Z</time>
      </trkpt>
      <trkpt lat="46.50364" lon="-1.79554">
        <ele>6</ele>
        <time>2008-01-20T05:44:08Z</time>
      </trkpt>
      <trkpt lat="46.50317" lon="-1.79665">
        <ele>5.8</ele>
        <time>2008-01-20T05:43:48Z</time>
      </trkpt>
      <trkpt lat="46.50289" lon="-1.79788">
        <ele>4.2</ele>
        <time>2008-01-20T05:41:02Z</time>
      </trkpt>
      <trkpt lat="46.50274" lon="-1.79896">
        <ele>4.4</ele>
        <time>2008-01-20T05:40:41Z</time>
      </trkpt>
      <trkpt lat="46.50249" lon="-1.80023">
        <ele>7.6</ele>
        <time>2008-01-20T05:40:25Z</time>
      </trkpt>
      <trkpt lat="46.50234" lon="-1.80157">
        <ele>11</ele>
        <time>2008-01-20T05:39:59Z</time>
      </trkpt>
      <trkpt lat="46.50223" lon="-1.80287">
        <ele>11.1</ele>
        <time>2008-01-20T05:39:40Z</time>
      </trkpt>
      <trkpt lat="46.50198" lon="-1.80419">
        <ele>12</ele>
        <time>2008-01-20T05:39:23Z</time>
      </trkpt>
      <trkpt lat="46.50178" lon="-1.80541">
        <ele>16.1</ele>
        <time>2008-01-20T05:36:43Z</time>
      </trkpt>
      <trkpt lat="46.50222" lon="-1.80658">
        <ele>16.8</ele>
        <time>2008-01-20T05:36:22Z</time>
      </trkpt>
      <trkpt lat="46.50228" lon="-1.80789">
        <ele>16.8</ele>
        <time>2008-01-20T05:35:59Z</time>
      </trkpt>
      <trkpt lat="46.50254" lon="-1.80914">
        <ele>18.8</ele>
        <time>2008-01-20T05:35:41Z</time>
      </trkpt>
      <trkpt lat="46.50278" lon="-1.81047">
        <ele>16.8</ele>
        <time>2008-01-20T05:35:16Z</time>
      </trkpt>
      <trkpt lat="46.50304" lon="-1.81172">
        <ele>14.3</ele>
        <time>2008-01-20T05:34:56Z</time>
      </trkpt>
      <trkpt lat="46.50331" lon="-1.813">
        <ele>12</ele>
        <time>2008-01-20T05:34:36Z</time>
      </trkpt>
      <trkpt lat="46.50377" lon="-1.81412">
        <ele>10.8</ele>
        <time>2008-01-20T05:34:12Z</time>
      </trkpt>
      <trkpt lat="46.50437" lon="-1.81513">
        <ele>8.9</ele>
        <time>2008-01-20T05:33:54Z</time>
      </trkpt>
      <trkpt lat="46.50515" lon="-1.81579">
        <ele>8.6</ele>
        <time>2008-01-20T05:31:03Z</time>
      </trkpt>
      <trkpt lat="46.50586" lon="-1.8166">
        <ele>7</ele>
        <time>2008-01-20T05:30:44Z</time>
      </trkpt>
      <trkpt lat="46.5067" lon="-1.81693">
        <ele>6.6</ele>
        <time>2008-01-20T05:30:29Z</time>
      </trkpt>
      <trkpt lat="46.50761" lon="-1.81721">
        <ele>7</ele>
        <time>2008-01-20T05:30:14Z</time>
      </trkpt>
      <trkpt lat="46.50848" lon="-1.81754">
        <ele>6.3</ele>
        <time>2008-01-20T05:27:09Z</time>
      </trkpt>
      <trkpt lat="46.50934" lon="-1.8181">
        <ele>6.8</ele>
        <time>2008-01-20T05:26:51Z</time>
      </trkpt>
      <trkpt lat="46.51022" lon="-1.81857">
        <ele>8.37</ele>
        <time>2008-01-20T05:26:29Z</time>
      </trkpt>
      <trkpt lat="46.5104" lon="-1.81739">
        <ele>12.8</ele>
        <time>2008-01-20T05:25:59Z</time>
      </trkpt>
      <trkpt lat="46.51071" lon="-1.81608">
        <ele>14.5</ele>
        <time>2008-01-20T05:25:46Z</time>
      </trkpt>
      <trkpt lat="46.51105" lon="-1.81488">
        <ele>17.2</ele>
        <time>2008-01-20T05:25:30Z</time>
      </trkpt>
      <trkpt lat="46.51127" lon="-1.8136">
        <ele>18.3</ele>
        <time>2008-01-20T05:25:09Z</time>
      </trkpt>
      <trkpt lat="46.51203" lon="-1.81378">
        <ele>18.1</ele>
        <time>2008-01-20T05:24:46Z</time>
      </trkpt>
      <trkpt lat="46.51283" lon="-1.81314">
        <ele>10.1</ele>
        <time>2008-01-20T05:19:09Z</time>
      </trkpt>
      <trkpt lat="46.51356" lon="-1.81244">
        <ele>13.9</ele>
        <time>2008-01-20T05:18:49Z</time>
      </trkpt>
      <trkpt lat="46.51421" lon="-1.81145">
        <ele>10.3</ele>
        <time>2008-01-20T05:18:27Z</time>
      </trkpt>
      <trkpt lat="46.51472" lon="-1.81036">
        <ele>11.9</ele>
        <time>2008-01-20T05:18:08Z</time>
      </trkpt>
      <trkpt lat="46.51549" lon="-1.80979">
        <ele>11.4</ele>
        <time>2008-01-20T05:17:45Z</time>
      </trkpt>
      <trkpt lat="46.51637" lon="-1.80993">
        <ele>8.4</ele>
        <time>2008-01-20T05:17:25Z</time>
      </trkpt>
      <trkpt lat="46.51723" lon="-1.80967">
        <ele>15.9</ele>
        <time>2008-01-20T05:17:09Z</time>
      </trkpt>
      <trkpt lat="46.51798" lon="-1.81032">
        <ele>22</ele>
        <time>2008-01-20T05:16:47Z</time>
      </trkpt>
      <trkpt lat="46.5184" lon="-1.8115">
        <ele>19.1</ele>
        <time>2008-01-20T05:16:25Z</time>
      </trkpt>
      <trkpt lat="46.51885" lon="-1.81261">
        <ele>14.03</ele>
        <time>2008-01-20T05:16:04Z</time>
      </trkpt>
      <trkpt lat="46.5197" lon="-1.81302">
        <ele>11.7</ele>
        <time>2008-01-20T05:15:40Z</time>
      </trkpt>
      <trkpt lat="46.52061" lon="-1.81284">
        <ele>18.5</ele>
        <time>2008-01-20T05:15:24Z</time>
      </trkpt>
      <trkpt lat="46.52141" lon="-1.81276">
        <ele>16.8</ele>
        <time>2008-01-20T05:15:03Z</time>
      </trkpt>
      <trkpt lat="46.52216" lon="-1.81343">
        <ele>12.3</ele>
        <time>2008-01-20T05:14:40Z</time>
      </trkpt>
      <trkpt lat="46.52306" lon="-1.81337">
        <ele>13.2</ele>
        <time>2008-01-20T05:14:27Z</time>
      </trkpt>
      <trkpt lat="46.52383" lon="-1.81296">
        <ele>13.1</ele>
        <time>2008-01-20T05:14:08Z</time>
      </trkpt>
      <trkpt lat="46.52404" lon="-1.81167">
        <ele>9.1</ele>
        <time>2008-01-20T05:13:40Z</time>
      </trkpt>
      <trkpt lat="46.5242" lon="-1.81039">
        <ele>4.48</ele>
        <time>2008-01-20T05:08:45Z</time>
      </trkpt>
      <trkpt lat="46.52434" lon="-1.80911">
        <ele>1.1</ele>
        <time>2008-01-20T05:07:29Z</time>
      </trkpt>
      <trkpt lat="46.52443" lon="-1.80777">
        <ele>0.9</ele>
        <time>2008-01-20T05:07:08Z</time>
      </trkpt>
      <trkpt lat="46.52511" lon="-1.80751">
        <ele>-1.3</ele>
        <time>2008-01-20T05:06:04Z</time>
      </trkpt>
      <trkpt lat="46.52578" lon="-1.80688">
        <ele>-1.3</ele>
        <time>2008-01-20T05:05:49Z</time>
      </trkpt>
      <trkpt lat="46.52672" lon="-1.80686">
        <ele>-2</ele>
        <time>2008-01-20T05:05:33Z</time>
      </trkpt>
      <trkpt lat="46.5276" lon="-1.80643">
        <ele>-2.1</ele>
        <time>2008-01-20T05:05:17Z</time>
      </trkpt>
      <trkpt lat="46.52801" lon="-1.80691">
        <ele>-6.3</ele>
        <time>2008-01-20T05:04:00Z</time>
      </trkpt>
      <trkpt lat="46.52854" lon="-1.80779">
        <ele>-8.2</ele>
        <time>2008-01-20T05:03:43Z</time>
      </trkpt>
      <trkpt lat="46.52908" lon="-1.80877">
        <ele>-10.57</ele>
        <time>2008-01-20T05:03:22Z</time>
      </trkpt>
      <trkpt lat="46.52998" lon="-1.80898">
        <ele>-10.5</ele>
        <time>2008-01-20T05:03:04Z</time>
      </trkpt>
      <trkpt lat="46.53083" lon="-1.8085">
        <ele>-8.8</ele>
        <time>2008-01-20T05:02:45Z</time>
      </trkpt>
      <trkpt lat="46.53168" lon="-1.80788">
        <ele>-9.9</ele>
        <time>2008-01-20T05:02:29Z</time>
      </trkpt>
      <trkpt lat="46.53251" lon="-1.80736">
        <ele>-9.37</ele>
        <time>2008-01-20T05:02:12Z</time>
      </trkpt>
      <trkpt lat="46.53334" lon="-1.80675">
        <ele>-9</ele>
        <time>2008-01-20T05:01:55Z</time>
      </trkpt>
      <trkpt lat="46.53417" lon="-1.80611">
        <ele>-3.22</ele>
        <time>2008-01-20T05:01:24Z</time>
      </trkpt>
      <trkpt lat="46.53491" lon="-1.80593">
        <ele>4.3</ele>
        <time>2008-01-20T04:18:38Z</time>
      </trkpt>
      <trkpt lat="46.53573" lon="-1.8053">
        <ele>3.5</ele>
        <time>2008-01-20T04:18:25Z</time>
      </trkpt>
      <trkpt lat="46.53656" lon="-1.80472">
        <ele>2.7</ele>
        <time>2008-01-20T04:18:12Z</time>
      </trkpt>
      <trkpt lat="46.53744" lon="-1.80431">
        <ele>5.2</ele>
        <time>2008-01-20T04:17:12Z</time>
      </trkpt>
      <trkpt lat="46.53831" lon="-1.80386">
        <ele>5.9</ele>
        <time>2008-01-20T04:16:50Z</time>
      </trkpt>
      <trkpt lat="46.53915" lon="-1.80326">
        <ele>6.4</ele>
        <time>2008-01-20T04:16:35Z</time>
      </trkpt>
      <trkpt lat="46.5399" lon="-1.8025">
        <ele>4.8</ele>
        <time>2008-01-20T04:16:19Z</time>
      </trkpt>
      <trkpt lat="46.5406" lon="-1.80183">
        <ele>6.5</ele>
        <time>2008-01-20T04:15:22Z</time>
      </trkpt>
      <trkpt lat="46.54154" lon="-1.80201">
        <ele>6.2</ele>
        <time>2008-01-20T04:15:05Z</time>
      </trkpt>
      <trkpt lat="46.54242" lon="-1.80174">
        <ele>5.2</ele>
        <time>2008-01-20T04:14:45Z</time>
      </trkpt>
      <trkpt lat="46.54304" lon="-1.80216">
        <ele>7.4</ele>
        <time>2008-01-20T04:11:54Z</time>
      </trkpt>
      <trkpt lat="46.54309" lon="-1.80338">
        <ele>7.4</ele>
        <time>2008-01-20T04:11:34Z</time>
      </trkpt>
      <trkpt lat="46.54337" lon="-1.80461">
        <ele>8</ele>
        <time>2008-01-20T04:11:15Z</time>
      </trkpt>
      <trkpt lat="46.54362" lon="-1.80589">
        <ele>7.8</ele>
        <time>2008-01-20T04:10:58Z</time>
      </trkpt>
      <trkpt lat="46.54352" lon="-1.80713">
        <ele>7.1</ele>
        <time>2008-01-20T04:10:42Z</time>
      </trkpt>
      <trkpt lat="46.54371" lon="-1.80843">
        <ele>6.4</ele>
        <time>2008-01-20T04:10:27Z</time>
      </trkpt>
      <trkpt lat="46.54389" lon="-1.80972">
        <ele>4.5</ele>
        <time>2008-01-20T04:10:08Z</time>
      </trkpt>
      <trkpt lat="46.54458" lon="-1.81022">
        <ele>2.8</ele>
        <time>2008-01-20T04:09:37Z</time>
      </trkpt>
      <trkpt lat="46.54544" lon="-1.81">
        <ele>3.2</ele>
        <time>2008-01-20T04:09:07Z</time>
      </trkpt>
      <trkpt lat="46.54622" lon="-1.81063">
        <ele>5.2</ele>
        <time>2008-01-20T04:08:47Z</time>
      </trkpt>
      <trkpt lat="46.54709" lon="-1.81099">
        <ele>7.5</ele>
        <time>2008-01-20T04:08:25Z</time>
      </trkpt>
      <trkpt lat="46.54765" lon="-1.81008">
        <ele>8.6</ele>
        <time>2008-01-20T04:07:50Z</time>
      </trkpt>
      <trkpt lat="46.5482" lon="-1.80897">
        <ele>10.4</ele>
        <time>2008-01-20T04:07:32Z</time>
      </trkpt>
      <trkpt lat="46.54895" lon="-1.80957">
        <ele>11.9</ele>
        <time>2008-01-20T04:05:02Z</time>
      </trkpt>
      <trkpt lat="46.54975" lon="-1.81031">
        <ele>9.5</ele>
        <time>2008-01-20T04:04:45Z</time>
      </trkpt>
      <trkpt lat="46.55054" lon="-1.80999">
        <ele>9.6</ele>
        <time>2008-01-20T04:04:28Z</time>
      </trkpt>
      <trkpt lat="46.55129" lon="-1.81081">
        <ele>7.9</ele>
        <time>2008-01-20T04:04:12Z</time>
      </trkpt>
      <trkpt lat="46.55203" lon="-1.8116">
        <ele>8.5</ele>
        <time>2008-01-20T04:01:09Z</time>
      </trkpt>
      <trkpt lat="46.55286" lon="-1.81223">
        <ele>9.5</ele>
        <time>2008-01-20T04:00:47Z</time>
      </trkpt>
      <trkpt lat="46.55335" lon="-1.81336">
        <ele>8.7</ele>
        <time>2008-01-20T03:58:14Z</time>
      </trkpt>
      <trkpt lat="46.55398" lon="-1.81434">
        <ele>8.7</ele>
        <time>2008-01-20T03:57:54Z</time>
      </trkpt>
      <trkpt lat="46.55458" lon="-1.81538">
        <ele>9.2</ele>
        <time>2008-01-20T03:57:35Z</time>
      </trkpt>
      <trkpt lat="46.55516" lon="-1.81605">
        <ele>17</ele>
        <time>2008-01-20T03:56:08Z</time>
      </trkpt>
      <trkpt lat="46.55585" lon="-1.81516">
        <ele>13.6</ele>
        <time>2008-01-20T03:55:48Z</time>
      </trkpt>
      <trkpt lat="46.55626" lon="-1.8138">
        <ele>15.4</ele>
        <time>2008-01-20T03:54:15Z</time>
      </trkpt>
      <trkpt lat="46.5559" lon="-1.81281">
        <ele>9.5</ele>
        <time>2008-01-20T03:52:57Z</time>
      </trkpt>
      <trkpt lat="46.55628" lon="-1.81174">
        <ele>9.7</ele>
        <time>2008-01-20T03:52:34Z</time>
      </trkpt>
      <trkpt lat="46.55667" lon="-1.81058">
        <ele>9.9</ele>
        <time>2008-01-20T03:50:23Z</time>
      </trkpt>
      <trkpt lat="46.55727" lon="-1.8096">
        <ele>8.4</ele>
        <time>2008-01-20T03:49:57Z</time>
      </trkpt>
      <trkpt lat="46.5579" lon="-1.8087">
        <ele>4.3</ele>
        <time>2008-01-20T03:47:54Z</time>
      </trkpt>
      <trkpt lat="46.55879" lon="-1.80883">
        <ele>5</ele>
        <time>2008-01-20T03:47:37Z</time>
      </trkpt>
      <trkpt lat="46.55963" lon="-1.80933">
        <ele>5</ele>
        <time>2008-01-20T03:47:15Z</time>
      </trkpt>
      <trkpt lat="46.56047" lon="-1.80991">
        <ele>6</ele>
        <time>2008-01-20T03:45:30Z</time>
      </trkpt>
      <trkpt lat="46.56121" lon="-1.81067">
        <ele>8.6</ele>
        <time>2008-01-20T03:45:12Z</time>
      </trkpt>
      <trkpt lat="46.56187" lon="-1.81002">
        <ele>10.9</ele>
        <time>2008-01-20T03:44:52Z</time>
      </trkpt>
      <trkpt lat="46.56279" lon="-1.80992">
        <ele>11.7</ele>
        <time>2008-01-20T03:44:33Z</time>
      </trkpt>
      <trkpt lat="46.56352" lon="-1.81038">
        <ele>14</ele>
        <time>2008-01-20T03:43:50Z</time>
      </trkpt>
      <trkpt lat="46.56406" lon="-1.8115">
        <ele>14.3</ele>
        <time>2008-01-20T03:43:24Z</time>
      </trkpt>
      <trkpt lat="46.56478" lon="-1.81236">
        <ele>15.1</ele>
        <time>2008-01-20T03:40:00Z</time>
      </trkpt>
      <trkpt lat="46.56539" lon="-1.81327">
        <ele>12.5</ele>
        <time>2008-01-20T03:39:40Z</time>
      </trkpt>
      <trkpt lat="46.56607" lon="-1.81411">
        <ele>11.9</ele>
        <time>2008-01-20T03:39:22Z</time>
      </trkpt>
      <trkpt lat="46.56652" lon="-1.8153">
        <ele>22.5</ele>
        <time>2008-01-20T03:39:02Z</time>
      </trkpt>
      <trkpt lat="46.56702" lon="-1.81639">
        <ele>28.4</ele>
        <time>2008-01-20T03:38:43Z</time>
      </trkpt>
      <trkpt lat="46.56769" lon="-1.81733">
        <ele>26</ele>
        <time>2008-01-20T03:38:22Z</time>
      </trkpt>
      <trkpt lat="46.56832" lon="-1.81832">
        <ele>19.6</ele>
        <time>2008-01-20T03:38:02Z</time>
      </trkpt>
      <trkpt lat="46.56851" lon="-1.8196">
        <ele>12.5</ele>
        <time>2008-01-20T03:37:37Z</time>
      </trkpt>
      <trkpt lat="46.56912" lon="-1.82042">
        <ele>9.28</ele>
        <time>2008-01-20T03:37:02Z</time>
      </trkpt>
      <trkpt lat="46.56957" lon="-1.81931">
        <ele>7.5</ele>
        <time>2008-01-20T03:35:39Z</time>
      </trkpt>
      <trkpt lat="46.57034" lon="-1.81859">
        <ele>12.3</ele>
        <time>2008-01-20T03:35:25Z</time>
      </trkpt>
      <trkpt lat="46.57125" lon="-1.81871">
        <ele>13.7</ele>
        <time>2008-01-20T03:35:09Z</time>
      </trkpt>
      <trkpt lat="46.57188" lon="-1.81962">
        <ele>6.8</ele>
        <time>2008-01-20T03:34:52Z</time>
      </trkpt>
      <trkpt lat="46.57225" lon="-1.8209">
        <ele>7.3</ele>
        <time>2008-01-20T03:34:37Z</time>
      </trkpt>
      <trkpt lat="46.57304" lon="-1.82118">
        <ele>11.6</ele>
        <time>2008-01-20T03:34:20Z</time>
      </trkpt>
      <trkpt lat="46.57393" lon="-1.82136">
        <ele>16.6</ele>
        <time>2008-01-20T03:34:02Z</time>
      </trkpt>
      <trkpt lat="46.57479" lon="-1.82188">
        <ele>11.6</ele>
        <time>2008-01-20T03:31:25Z</time>
      </trkpt>
      <trkpt lat="46.57567" lon="-1.82231">
        <ele>11</ele>
        <time>2008-01-20T03:31:08Z</time>
      </trkpt>
      <trkpt lat="46.57637" lon="-1.82287">
        <ele>13</ele>
        <time>2008-01-20T03:29:25Z</time>
      </trkpt>
      <trkpt lat="46.57633" lon="-1.82418">
        <ele>16.5</ele>
        <time>2008-01-20T03:28:58Z</time>
      </trkpt>
      <trkpt lat="46.57688" lon="-1.82508">
        <ele>17</ele>
        <time>2008-01-20T03:28:42Z</time>
      </trkpt>
      <trkpt lat="46.57765" lon="-1.82561">
        <ele>27.1</ele>
        <time>2008-01-20T03:28:22Z</time>
      </trkpt>
      <trkpt lat="46.57793" lon="-1.82685">
        <ele>19.2</ele>
        <time>2008-01-20T03:28:04Z</time>
      </trkpt>
      <trkpt lat="46.57821" lon="-1.8281">
        <ele>14</ele>
        <time>2008-01-20T03:27:45Z</time>
      </trkpt>
      <trkpt lat="46.57841" lon="-1.82937">
        <ele>10.3</ele>
        <time>2008-01-20T03:27:24Z</time>
      </trkpt>
      <trkpt lat="46.57846" lon="-1.83069">
        <ele>13.6</ele>
        <time>2008-01-20T03:27:08Z</time>
      </trkpt>
      <trkpt lat="46.57879" lon="-1.83182">
        <ele>12.7</ele>
        <time>2008-01-20T03:26:49Z</time>
      </trkpt>
      <trkpt lat="46.57935" lon="-1.83288">
        <ele>17.6</ele>
        <time>2008-01-20T03:25:54Z</time>
      </trkpt>
      <trkpt lat="46.5798" lon="-1.83404">
        <ele>29.5</ele>
        <time>2008-01-20T03:25:36Z</time>
      </trkpt>
      <trkpt lat="46.58031" lon="-1.83518">
        <ele>23.1</ele>
        <time>2008-01-20T03:25:12Z</time>
      </trkpt>
      <trkpt lat="46.58062" lon="-1.83644">
        <ele>25.3</ele>
        <time>2008-01-20T03:24:53Z</time>
      </trkpt>
      <trkpt lat="46.58126" lon="-1.83732">
        <ele>18.3</ele>
        <time>2008-01-20T03:24:29Z</time>
      </trkpt>
      <trkpt lat="46.5822" lon="-1.83723">
        <ele>15</ele>
        <time>2008-01-20T03:24:05Z</time>
      </trkpt>
      <trkpt lat="46.58289" lon="-1.83779">
        <ele>12.3</ele>
        <time>2008-01-20T03:23:44Z</time>
      </trkpt>
      <trkpt lat="46.58374" lon="-1.83791">
        <ele>20.4</ele>
        <time>2008-01-20T03:23:20Z</time>
      </trkpt>
      <trkpt lat="46.58434" lon="-1.83891">
        <ele>10.3</ele>
        <time>2008-01-20T03:22:58Z</time>
      </trkpt>
      <trkpt lat="46.58514" lon="-1.83949">
        <ele>9.8</ele>
        <time>2008-01-20T03:22:42Z</time>
      </trkpt>
      <trkpt lat="46.58604" lon="-1.83939">
        <ele>5.1</ele>
        <time>2008-01-20T03:22:19Z</time>
      </trkpt>
      <trkpt lat="46.58688" lon="-1.83894">
        <ele>7.7</ele>
        <time>2008-01-20T03:18:37Z</time>
      </trkpt>
      <trkpt lat="46.58775" lon="-1.83863">
        <ele>5.7</ele>
        <time>2008-01-20T03:18:23Z</time>
      </trkpt>
      <trkpt lat="46.58862" lon="-1.83828">
        <ele>4.5</ele>
        <time>2008-01-20T03:18:09Z</time>
      </trkpt>
      <trkpt lat="46.5895" lon="-1.83791">
        <ele>3.8</ele>
        <time>2008-01-20T03:17:55Z</time>
      </trkpt>
      <trkpt lat="46.5904" lon="-1.83745">
        <ele>3.5</ele>
        <time>2008-01-20T03:17:42Z</time>
      </trkpt>
      <trkpt lat="46.59102" lon="-1.8364">
        <ele>3.7</ele>
        <time>2008-01-20T03:17:27Z</time>
      </trkpt>
      <trkpt lat="46.59164" lon="-1.83543">
        <ele>3.5</ele>
        <time>2008-01-20T03:17:14Z</time>
      </trkpt>
      <trkpt lat="46.59249" lon="-1.83497">
        <ele>3.9</ele>
        <time>2008-01-20T03:17:00Z</time>
      </trkpt>
      <trkpt lat="46.59274" lon="-1.83371">
        <ele>3.7</ele>
        <time>2008-01-20T03:16:44Z</time>
      </trkpt>
      <trkpt lat="46.59337" lon="-1.83337">
        <ele>3.9</ele>
        <time>2008-01-20T03:16:27Z</time>
      </trkpt>
      <trkpt lat="46.59428" lon="-1.83378">
        <ele>5.8</ele>
        <time>2008-01-20T03:16:12Z</time>
      </trkpt>
      <trkpt lat="46.59511" lon="-1.83326">
        <ele>4.2</ele>
        <time>2008-01-20T03:15:43Z</time>
      </trkpt>
      <trkpt lat="46.59567" lon="-1.83338">
        <ele>3.6</ele>
        <time>2008-01-20T03:15:18Z</time>
      </trkpt>
      <trkpt lat="46.59556" lon="-1.83467">
        <ele>2.9</ele>
        <time>2008-01-20T03:14:58Z</time>
      </trkpt>
      <trkpt lat="46.59564" lon="-1.83603">
        <ele>2.9</ele>
        <time>2008-01-20T03:14:39Z</time>
      </trkpt>
      <trkpt lat="46.59557" lon="-1.83736">
        <ele>3.4</ele>
        <time>2008-01-20T03:14:22Z</time>
      </trkpt>
      <trkpt lat="46.59593" lon="-1.83856">
        <ele>4</ele>
        <time>2008-01-20T03:14:07Z</time>
      </trkpt>
      <trkpt lat="46.59635" lon="-1.83973">
        <ele>3.7</ele>
        <time>2008-01-20T03:13:52Z</time>
      </trkpt>
      <trkpt lat="46.59673" lon="-1.84095">
        <ele>4.1</ele>
        <time>2008-01-20T03:13:37Z</time>
      </trkpt>
      <trkpt lat="46.59727" lon="-1.84206">
        <ele>2.9</ele>
        <time>2008-01-20T03:13:22Z</time>
      </trkpt>
      <trkpt lat="46.59776" lon="-1.84316">
        <ele>3.4</ele>
        <time>2008-01-20T03:13:09Z</time>
      </trkpt>
      <trkpt lat="46.59818" lon="-1.84441">
        <ele>2.7</ele>
        <time>2008-01-20T03:12:53Z</time>
      </trkpt>
      <trkpt lat="46.59899" lon="-1.84454">
        <ele>4</ele>
        <time>2008-01-20T03:12:32Z</time>
      </trkpt>
      <trkpt lat="46.59987" lon="-1.84433">
        <ele>6.9</ele>
        <time>2008-01-20T03:12:20Z</time>
      </trkpt>
      <trkpt lat="46.60083" lon="-1.84436">
        <ele>8.8</ele>
        <time>2008-01-20T03:12:05Z</time>
      </trkpt>
      <trkpt lat="46.60172" lon="-1.84461">
        <ele>7.2</ele>
        <time>2008-01-20T03:11:47Z</time>
      </trkpt>
      <trkpt lat="46.60262" lon="-1.84485">
        <ele>3.9</ele>
        <time>2008-01-20T03:11:29Z</time>
      </trkpt>
      <trkpt lat="46.60353" lon="-1.84477">
        <ele>-0.9</ele>
        <time>2008-01-20T02:40:43Z</time>
      </trkpt>
      <trkpt lat="46.60346" lon="-1.84608">
        <ele>1.2</ele>
        <time>2008-01-20T02:40:27Z</time>
      </trkpt>
      <trkpt lat="46.60315" lon="-1.84731">
        <ele>2.1</ele>
        <time>2008-01-20T02:39:59Z</time>
      </trkpt>
      <trkpt lat="46.60294" lon="-1.84867">
        <ele>4.3</ele>
        <time>2008-01-20T02:39:44Z</time>
      </trkpt>
      <trkpt lat="46.60275" lon="-1.85004">
        <ele>6</ele>
        <time>2008-01-20T02:39:27Z</time>
      </trkpt>
      <trkpt lat="46.60354" lon="-1.85054">
        <ele>9</ele>
        <time>2008-01-20T02:36:49Z</time>
      </trkpt>
      <trkpt lat="46.60443" lon="-1.85094">
        <ele>12.3</ele>
        <time>2008-01-20T02:36:35Z</time>
      </trkpt>
      <trkpt lat="46.60534" lon="-1.85137">
        <ele>12.7</ele>
        <time>2008-01-20T02:36:22Z</time>
      </trkpt>
      <trkpt lat="46.60622" lon="-1.85178">
        <ele>13.7</ele>
        <time>2008-01-20T02:36:07Z</time>
      </trkpt>
      <trkpt lat="46.6071" lon="-1.85219">
        <ele>14.8</ele>
        <time>2008-01-20T02:35:47Z</time>
      </trkpt>
      <trkpt lat="46.60792" lon="-1.85273">
        <ele>12.8</ele>
        <time>2008-01-20T02:33:49Z</time>
      </trkpt>
      <trkpt lat="46.60872" lon="-1.85344">
        <ele>13.2</ele>
        <time>2008-01-20T02:33:34Z</time>
      </trkpt>
      <trkpt lat="46.6096" lon="-1.85397">
        <ele>13.5</ele>
        <time>2008-01-20T02:33:19Z</time>
      </trkpt>
      <trkpt lat="46.61051" lon="-1.85442">
        <ele>14.1</ele>
        <time>2008-01-20T02:33:00Z</time>
      </trkpt>
      <trkpt lat="46.61129" lon="-1.85502">
        <ele>12.7</ele>
        <time>2008-01-20T02:32:03Z</time>
      </trkpt>
      <trkpt lat="46.61182" lon="-1.856">
        <ele>13.3</ele>
        <time>2008-01-20T02:31:43Z</time>
      </trkpt>
      <trkpt lat="46.61214" lon="-1.85726">
        <ele>13.4</ele>
        <time>2008-01-20T02:31:24Z</time>
      </trkpt>
      <trkpt lat="46.61239" lon="-1.85856">
        <ele>12.1</ele>
        <time>2008-01-20T02:31:00Z</time>
      </trkpt>
      <trkpt lat="46.61267" lon="-1.85984">
        <ele>12.2</ele>
        <time>2008-01-20T02:30:29Z</time>
      </trkpt>
      <trkpt lat="46.6133" lon="-1.86075">
        <ele>7.9</ele>
        <time>2008-01-20T02:30:12Z</time>
      </trkpt>
      <trkpt lat="46.61408" lon="-1.86046">
        <ele>7</ele>
        <time>2008-01-20T02:24:50Z</time>
      </trkpt>
      <trkpt lat="46.61453" lon="-1.86063">
        <ele>7.1</ele>
        <time>2008-01-20T02:24:22Z</time>
      </trkpt>
      <trkpt lat="46.61498" lon="-1.86169">
        <ele>11.27</ele>
        <time>2008-01-20T02:24:02Z</time>
      </trkpt>
      <trkpt lat="46.61575" lon="-1.8619">
        <ele>11.1</ele>
        <time>2008-01-20T02:23:37Z</time>
      </trkpt>
      <trkpt lat="46.61623" lon="-1.86293">
        <ele>12.4</ele>
        <time>2008-01-20T02:22:57Z</time>
      </trkpt>
      <trkpt lat="46.61589" lon="-1.86381">
        <ele>4</ele>
        <time>2008-01-20T02:18:49Z</time>
      </trkpt>
      <trkpt lat="46.61607" lon="-1.86491">
        <ele>6.6</ele>
        <time>2008-01-20T02:17:44Z</time>
      </trkpt>
      <trkpt lat="46.61614" lon="-1.86623">
        <ele>7.6</ele>
        <time>2008-01-20T02:16:48Z</time>
      </trkpt>
      <trkpt lat="46.61635" lon="-1.8675">
        <ele>8.7</ele>
        <time>2008-01-20T02:16:27Z</time>
      </trkpt>
      <trkpt lat="46.61658" lon="-1.86876">
        <ele>5.7</ele>
        <time>2008-01-20T02:08:34Z</time>
      </trkpt>
      <trkpt lat="46.61717" lon="-1.86984">
        <ele>7.4</ele>
        <time>2008-01-20T02:08:10Z</time>
      </trkpt>
      <trkpt lat="46.61786" lon="-1.87071">
        <ele>6.6</ele>
        <time>2008-01-20T02:07:50Z</time>
      </trkpt>
      <trkpt lat="46.61859" lon="-1.87134">
        <ele>6.23</ele>
        <time>2008-01-20T02:06:23Z</time>
      </trkpt>
      <trkpt lat="46.6194" lon="-1.87192">
        <ele>10.4</ele>
        <time>2008-01-20T02:05:29Z</time>
      </trkpt>
      <trkpt lat="46.62025" lon="-1.87241">
        <ele>8.4</ele>
        <time>2008-01-20T02:05:09Z</time>
      </trkpt>
      <trkpt lat="46.62115" lon="-1.87217">
        <ele>9.7</ele>
        <time>2008-01-20T02:04:50Z</time>
      </trkpt>
      <trkpt lat="46.62203" lon="-1.87248">
        <ele>4.8</ele>
        <time>2008-01-20T02:03:37Z</time>
      </trkpt>
      <trkpt lat="46.62288" lon="-1.87307">
        <ele>2.1</ele>
        <time>2008-01-20T02:03:17Z</time>
      </trkpt>
      <trkpt lat="46.62373" lon="-1.8735">
        <ele>-3.7</ele>
        <time>2008-01-20T02:02:58Z</time>
      </trkpt>
      <trkpt lat="46.62464" lon="-1.87373">
        <ele>-4.7</ele>
        <time>2008-01-20T02:02:37Z</time>
      </trkpt>
      <trkpt lat="46.62557" lon="-1.87367">
        <ele>5.1</ele>
        <time>2008-01-20T02:00:34Z</time>
      </trkpt>
      <trkpt lat="46.62648" lon="-1.87363">
        <ele>-3.2</ele>
        <time>2008-01-20T01:57:03Z</time>
      </trkpt>
      <trkpt lat="46.62724" lon="-1.87434">
        <ele>0.5</ele>
        <time>2008-01-20T01:56:47Z</time>
      </trkpt>
      <trkpt lat="46.62808" lon="-1.87485">
        <ele>9.5</ele>
        <time>2008-01-20T01:56:30Z</time>
      </trkpt>
      <trkpt lat="46.62879" lon="-1.87567">
        <ele>-1.4</ele>
        <time>2008-01-20T01:56:14Z</time>
      </trkpt>
      <trkpt lat="46.62911" lon="-1.87678">
        <ele>-8</ele>
        <time>2008-01-20T01:55:04Z</time>
      </trkpt>
      <trkpt lat="46.62981" lon="-1.8776">
        <ele>6.9</ele>
        <time>2008-01-20T01:53:39Z</time>
      </trkpt>
      <trkpt lat="46.63018" lon="-1.87881">
        <ele>8.1</ele>
        <time>2008-01-20T01:53:22Z</time>
      </trkpt>
      <trkpt lat="46.63059" lon="-1.88002">
        <ele>11.6</ele>
        <time>2008-01-20T01:53:02Z</time>
      </trkpt>
      <trkpt lat="46.63125" lon="-1.88096">
        <ele>9.1</ele>
        <time>2008-01-20T01:52:40Z</time>
      </trkpt>
      <trkpt lat="46.6315" lon="-1.88217">
        <ele>-2.5</ele>
        <time>2008-01-20T01:48:59Z</time>
      </trkpt>
      <trkpt lat="46.63175" lon="-1.88335">
        <ele>-1.9</ele>
        <time>2008-01-20T01:48:37Z</time>
      </trkpt>
      <trkpt lat="46.63194" lon="-1.88461">
        <ele>-1.2</ele>
        <time>2008-01-20T01:48:19Z</time>
      </trkpt>
      <trkpt lat="46.63256" lon="-1.88561">
        <ele>-2.6</ele>
        <time>2008-01-20T01:48:04Z</time>
      </trkpt>
      <trkpt lat="46.63312" lon="-1.88667">
        <ele>-1.2</ele>
        <time>2008-01-20T01:47:49Z</time>
      </trkpt>
      <trkpt lat="46.63388" lon="-1.88741">
        <ele>2.7</ele>
        <time>2008-01-20T01:47:32Z</time>
      </trkpt>
      <trkpt lat="46.63445" lon="-1.8885">
        <ele>4.4</ele>
        <time>2008-01-20T01:46:27Z</time>
      </trkpt>
      <trkpt lat="46.63492" lon="-1.88962">
        <ele>4.3</ele>
        <time>2008-01-20T01:46:10Z</time>
      </trkpt>
      <trkpt lat="46.63545" lon="-1.8907">
        <ele>3.8</ele>
        <time>2008-01-20T01:45:51Z</time>
      </trkpt>
      <trkpt lat="46.63629" lon="-1.89136">
        <ele>-4.3</ele>
        <time>2008-01-20T01:43:38Z</time>
      </trkpt>
      <trkpt lat="46.6371" lon="-1.89195">
        <ele>-6.2</ele>
        <time>2008-01-20T01:43:17Z</time>
      </trkpt>
      <trkpt lat="46.63791" lon="-1.89254">
        <ele>11.3</ele>
        <time>2008-01-20T01:41:17Z</time>
      </trkpt>
      <trkpt lat="46.63848" lon="-1.89354">
        <ele>12.6</ele>
        <time>2008-01-20T01:40:57Z</time>
      </trkpt>
      <trkpt lat="46.63923" lon="-1.89433">
        <ele>4.33</ele>
        <time>2008-01-20T01:38:37Z</time>
      </trkpt>
      <trkpt lat="46.64012" lon="-1.8943">
        <ele>4.7</ele>
        <time>2008-01-20T01:29:07Z</time>
      </trkpt>
      <trkpt lat="46.64102" lon="-1.89426">
        <ele>10.3</ele>
        <time>2008-01-20T01:28:53Z</time>
      </trkpt>
      <trkpt lat="46.64194" lon="-1.89454">
        <ele>13.9</ele>
        <time>2008-01-20T01:28:39Z</time>
      </trkpt>
      <trkpt lat="46.64282" lon="-1.89461">
        <ele>7.3</ele>
        <time>2008-01-20T01:22:08Z</time>
      </trkpt>
      <trkpt lat="46.64325" lon="-1.8936">
        <ele>9.4</ele>
        <time>2008-01-20T01:21:47Z</time>
      </trkpt>
      <trkpt lat="46.64414" lon="-1.89353">
        <ele>10.1</ele>
        <time>2008-01-20T01:21:27Z</time>
      </trkpt>
      <trkpt lat="46.645" lon="-1.89377">
        <ele>10</ele>
        <time>2008-01-20T01:21:05Z</time>
      </trkpt>
      <trkpt lat="46.64588" lon="-1.89348">
        <ele>15.4</ele>
        <time>2008-01-20T01:20:34Z</time>
      </trkpt>
      <trkpt lat="46.64667" lon="-1.8941">
        <ele>14.8</ele>
        <time>2008-01-20T01:20:15Z</time>
      </trkpt>
      <trkpt lat="46.64754" lon="-1.89449">
        <ele>9.5</ele>
        <time>2008-01-20T01:19:54Z</time>
      </trkpt>
      <trkpt lat="46.64819" lon="-1.8937">
        <ele>13.6</ele>
        <time>2008-01-20T01:19:33Z</time>
      </trkpt>
      <trkpt lat="46.649" lon="-1.89309">
        <ele>18</ele>
        <time>2008-01-20T01:19:09Z</time>
      </trkpt>
      <trkpt lat="46.64946" lon="-1.89423">
        <ele>18.3</ele>
        <time>2008-01-20T01:18:47Z</time>
      </trkpt>
      <trkpt lat="46.6499" lon="-1.89543">
        <ele>17.9</ele>
        <time>2008-01-20T01:18:27Z</time>
      </trkpt>
      <trkpt lat="46.65043" lon="-1.89647">
        <ele>16.8</ele>
        <time>2008-01-20T01:18:07Z</time>
      </trkpt>
      <trkpt lat="46.65105" lon="-1.89738">
        <ele>13.3</ele>
        <time>2008-01-20T01:15:37Z</time>
      </trkpt>
      <trkpt lat="46.65188" lon="-1.89733">
        <ele>11.8</ele>
        <time>2008-01-20T01:15:17Z</time>
      </trkpt>
      <trkpt lat="46.65272" lon="-1.89727">
        <ele>10.8</ele>
        <time>2008-01-20T01:14:58Z</time>
      </trkpt>
      <trkpt lat="46.65346" lon="-1.89738">
        <ele>10.35</ele>
        <time>2008-01-20T01:14:36Z</time>
      </trkpt>
      <trkpt lat="46.65411" lon="-1.89647">
        <ele>9.6</ele>
        <time>2008-01-20T01:14:08Z</time>
      </trkpt>
      <trkpt lat="46.65488" lon="-1.89628">
        <ele>7.1</ele>
        <time>2008-01-20T01:12:57Z</time>
      </trkpt>
      <trkpt lat="46.65569" lon="-1.89686">
        <ele>7.2</ele>
        <time>2008-01-20T01:12:42Z</time>
      </trkpt>
      <trkpt lat="46.65653" lon="-1.89732">
        <ele>5.4</ele>
        <time>2008-01-20T01:12:24Z</time>
      </trkpt>
      <trkpt lat="46.65738" lon="-1.89789">
        <ele>4.9</ele>
        <time>2008-01-20T01:12:04Z</time>
      </trkpt>
      <trkpt lat="46.65827" lon="-1.89837">
        <ele>3.9</ele>
        <time>2008-01-20T01:11:48Z</time>
      </trkpt>
      <trkpt lat="46.65907" lon="-1.89901">
        <ele>8.1</ele>
        <time>2008-01-20T01:11:32Z</time>
      </trkpt>
      <trkpt lat="46.65992" lon="-1.89946">
        <ele>8.3</ele>
        <time>2008-01-20T01:11:13Z</time>
      </trkpt>
      <trkpt lat="46.66075" lon="-1.90002">
        <ele>15.3</ele>
        <time>2008-01-20T01:10:52Z</time>
      </trkpt>
      <trkpt lat="46.66118" lon="-1.90122">
        <ele>9.7</ele>
        <time>2008-01-20T01:09:24Z</time>
      </trkpt>
      <trkpt lat="46.66095" lon="-1.90245">
        <ele>15.3</ele>
        <time>2008-01-20T01:09:02Z</time>
      </trkpt>
      <trkpt lat="46.66091" lon="-1.90372">
        <ele>8.15</ele>
        <time>2008-01-20T01:08:16Z</time>
      </trkpt>
      <trkpt lat="46.66104" lon="-1.905">
        <ele>5</ele>
        <time>2008-01-20T01:06:48Z</time>
      </trkpt>
      <trkpt lat="46.6616" lon="-1.90601">
        <ele>3.2</ele>
        <time>2008-01-20T01:06:30Z</time>
      </trkpt>
      <trkpt lat="46.66249" lon="-1.90618">
        <ele>3.8</ele>
        <time>2008-01-20T01:06:15Z</time>
      </trkpt>
      <trkpt lat="46.66343" lon="-1.90637">
        <ele>5</ele>
        <time>2008-01-20T01:06:00Z</time>
      </trkpt>
      <trkpt lat="46.6643" lon="-1.90596">
        <ele>7.8</ele>
        <time>2008-01-20T01:05:43Z</time>
      </trkpt>
      <trkpt lat="46.66521" lon="-1.9061">
        <ele>8.6</ele>
        <time>2008-01-20T01:05:25Z</time>
      </trkpt>
      <trkpt lat="46.66611" lon="-1.90615">
        <ele>10</ele>
        <time>2008-01-20T01:05:09Z</time>
      </trkpt>
      <trkpt lat="46.66683" lon="-1.90674">
        <ele>7.9</ele>
        <time>2008-01-20T01:04:50Z</time>
      </trkpt>
      <trkpt lat="46.66699" lon="-1.90804">
        <ele>7.9</ele>
        <time>2008-01-20T01:04:32Z</time>
      </trkpt>
      <trkpt lat="46.66683" lon="-1.90936">
        <ele>8</ele>
        <time>2008-01-20T01:04:14Z</time>
      </trkpt>
      <trkpt lat="46.66675" lon="-1.91071">
        <ele>2.4</ele>
        <time>2008-01-20T01:03:57Z</time>
      </trkpt>
      <trkpt lat="46.66743" lon="-1.91052">
        <ele>-2</ele>
        <time>2008-01-20T01:03:37Z</time>
      </trkpt>
      <trkpt lat="46.66781" lon="-1.90937">
        <ele>2.6</ele>
        <time>2008-01-20T01:03:18Z</time>
      </trkpt>
      <trkpt lat="46.66864" lon="-1.90884">
        <ele>1.1</ele>
        <time>2008-01-20T01:03:00Z</time>
      </trkpt>
      <trkpt lat="46.66946" lon="-1.90826">
        <ele>3</ele>
        <time>2008-01-20T01:02:42Z</time>
      </trkpt>
      <trkpt lat="46.67035" lon="-1.9084">
        <ele>4.3</ele>
        <time>2008-01-20T01:02:19Z</time>
      </trkpt>
      <trkpt lat="46.67119" lon="-1.90841">
        <ele>5.7</ele>
        <time>2008-01-20T00:58:14Z</time>
      </trkpt>
      <trkpt lat="46.67184" lon="-1.90863">
        <ele>9.4</ele>
        <time>2008-01-20T00:55:59Z</time>
      </trkpt>
      <trkpt lat="46.67247" lon="-1.90958">
        <ele>8.3</ele>
        <time>2008-01-20T00:55:38Z</time>
      </trkpt>
      <trkpt lat="46.67303" lon="-1.9106">
        <ele>7.7</ele>
        <time>2008-01-20T00:55:22Z</time>
      </trkpt>
      <trkpt lat="46.67353" lon="-1.91171">
        <ele>6.2</ele>
        <time>2008-01-20T00:54:55Z</time>
      </trkpt>
      <trkpt lat="46.67402" lon="-1.91286">
        <ele>9.4</ele>
        <time>2008-01-20T00:47:54Z</time>
      </trkpt>
      <trkpt lat="46.6746" lon="-1.9139">
        <ele>10.2</ele>
        <time>2008-01-20T00:47:34Z</time>
      </trkpt>
      <trkpt lat="46.67522" lon="-1.91488">
        <ele>9.8</ele>
        <time>2008-01-20T00:47:07Z</time>
      </trkpt>
      <trkpt lat="46.67573" lon="-1.916">
        <ele>9.7</ele>
        <time>2008-01-20T00:46:49Z</time>
      </trkpt>
      <trkpt lat="46.67622" lon="-1.9171">
        <ele>10.8</ele>
        <time>2008-01-20T00:46:32Z</time>
      </trkpt>
      <trkpt lat="46.67677" lon="-1.91818">
        <ele>9.5</ele>
        <time>2008-01-20T00:46:12Z</time>
      </trkpt>
      <trkpt lat="46.67737" lon="-1.91922">
        <ele>9</ele>
        <time>2008-01-20T00:45:55Z</time>
      </trkpt>
      <trkpt lat="46.678" lon="-1.92023">
        <ele>7.5</ele>
        <time>2008-01-20T00:45:39Z</time>
      </trkpt>
      <trkpt lat="46.67839" lon="-1.92147">
        <ele>6.6</ele>
        <time>2008-01-20T00:45:22Z</time>
      </trkpt>
      <trkpt lat="46.67912" lon="-1.92224">
        <ele>10</ele>
        <time>2008-01-20T00:44:52Z</time>
      </trkpt>
      <trkpt lat="46.67989" lon="-1.92303">
        <ele>12.2</ele>
        <time>2008-01-20T00:44:34Z</time>
      </trkpt>
      <trkpt lat="46.68061" lon="-1.92391">
        <ele>11.2</ele>
        <time>2008-01-20T00:41:49Z</time>
      </trkpt>
      <trkpt lat="46.68108" lon="-1.92507">
        <ele>11.2</ele>
        <time>2008-01-20T00:41:33Z</time>
      </trkpt>
      <trkpt lat="46.68174" lon="-1.92605">
        <ele>9.7</ele>
        <time>2008-01-20T00:41:17Z</time>
      </trkpt>
      <trkpt lat="46.68236" lon="-1.92704">
        <ele>10.7</ele>
        <time>2008-01-20T00:41:00Z</time>
      </trkpt>
      <trkpt lat="46.68302" lon="-1.92802">
        <ele>10.9</ele>
        <time>2008-01-20T00:40:02Z</time>
      </trkpt>
      <trkpt lat="46.68364" lon="-1.92897">
        <ele>9.8</ele>
        <time>2008-01-20T00:39:45Z</time>
      </trkpt>
      <trkpt lat="46.68433" lon="-1.9299">
        <ele>9</ele>
        <time>2008-01-20T00:39:28Z</time>
      </trkpt>
      <trkpt lat="46.68504" lon="-1.93071">
        <ele>8.5</ele>
        <time>2008-01-20T00:39:13Z</time>
      </trkpt>
      <trkpt lat="46.68583" lon="-1.93146">
        <ele>8.6</ele>
        <time>2008-01-20T00:38:55Z</time>
      </trkpt>
      <trkpt lat="46.68662" lon="-1.93212">
        <ele>8</ele>
        <time>2008-01-20T00:35:32Z</time>
      </trkpt>
      <trkpt lat="46.68752" lon="-1.93235">
        <ele>7</ele>
        <time>2008-01-20T00:35:17Z</time>
      </trkpt>
      <trkpt lat="46.68842" lon="-1.93225">
        <ele>6.42</ele>
        <time>2008-01-20T00:34:14Z</time>
      </trkpt>
      <trkpt lat="46.68932" lon="-1.93173">
        <ele>3.9</ele>
        <time>2008-01-20T00:33:52Z</time>
      </trkpt>
      <trkpt lat="46.69024" lon="-1.93162">
        <ele>2.7</ele>
        <time>2008-01-20T00:33:37Z</time>
      </trkpt>
      <trkpt lat="46.69108" lon="-1.93203">
        <ele>1.5</ele>
        <time>2008-01-20T00:33:17Z</time>
      </trkpt>
      <trkpt lat="46.69163" lon="-1.93307">
        <ele>14.5</ele>
        <time>2008-01-20T00:29:23Z</time>
      </trkpt>
      <trkpt lat="46.69247" lon="-1.93321">
        <ele>6.9</ele>
        <time>2008-01-20T00:27:48Z</time>
      </trkpt>
      <trkpt lat="46.69341" lon="-1.93335">
        <ele>6.2</ele>
        <time>2008-01-20T00:25:02Z</time>
      </trkpt>
      <trkpt lat="46.6943" lon="-1.93349">
        <ele>7.8</ele>
        <time>2008-01-20T00:24:39Z</time>
      </trkpt>
      <trkpt lat="46.69517" lon="-1.93387">
        <ele>8.7</ele>
        <time>2008-01-20T00:17:04Z</time>
      </trkpt>
    </trkseg>
  </trk>
</gpx>